Time;durP1;ratioP1;P1;durP2;ratioP2;P2;SDS_P1;SDS_P2;PMS_P1;PMS_P2;Temp;Humidity;BMP_temperature;BMP_pressure;BME280_temperature;BME280_humidity;BME280_pressure;Samples;Min_cycle;Max_cycle;Signal;HPM_P1;HPM_P2
2021/12/06 00:00:22;;;;;;;14.23;10.38;;;;;;;-144.99;100.00;57660.31;346646;28;1069;-65
2021/12/06 00:00:49;;;;;;;13.48;10.70;;;;;;;-144.99;100.00;57660.31;346387;28;977;-65
2021/12/06 00:01:39;;;;;;;15.50;10.38;;;;;;;-144.99;100.00;57660.31;346964;28;1647;-65
2021/12/06 00:01:51;;;;;;;15.70;10.52;;;;;;;-144.99;100.00;57660.31;342138;28;877;-65
2021/12/06 00:02:12;;;;;;;13.85;10.10;;;;;;;-144.99;100.00;57660.31;342151;28;1558;-65
2021/12/06 00:02:26;;;;;;;11.82;9.20;;;;;;;-144.99;100.00;57660.31;341985;28;1342;-65
2021/12/06 00:02:39;;;;;;;11.70;8.82;;;;;;;-144.99;100.00;57660.31;342262;28;2260;-65
2021/12/06 00:02:55;;;;;;;11.20;8.85;;;;;;;-144.99;100.00;57660.31;342519;28;2401;-65
2021/12/06 00:03:11;;;;;;;11.48;8.90;;;;;;;-144.99;100.00;57660.31;342943;28;2212;-65
2021/12/06 00:03:41;;;;;;;11.98;9.20;;;;;;;-144.99;100.00;57660.31;343688;28;1241;-65
2021/12/06 00:03:57;;;;;;;11.60;8.70;;;;;;;-144.99;100.00;57660.31;346978;28;1266;-65
2021/12/06 00:04:17;;;;;;;11.68;8.75;;;;;;;-144.99;100.00;57660.31;346357;28;1161;-65
2021/12/06 00:04:33;;;;;;;11.82;9.25;;;;;;;-144.99;100.00;57660.31;346003;28;1889;-65
2021/12/06 00:04:46;;;;;;;11.63;9.30;;;;;;;-144.99;100.00;57660.31;347842;28;1680;-65
2021/12/06 00:04:58;;;;;;;12.63;9.02;;;;;;;-144.99;100.00;57660.31;346704;28;2157;-65
2021/12/06 00:05:12;;;;;;;13.32;8.88;;;;;;;-144.99;100.00;57660.31;346208;28;1081;-65
2021/12/06 00:05:26;;;;;;;11.90;9.20;;;;;;;-144.99;100.00;57660.31;346369;28;1066;-65
2021/12/06 00:05:38;;;;;;;12.82;9.55;;;;;;;-144.99;100.00;57660.31;345909;28;1225;-65
2021/12/06 00:05:51;;;;;;;12.05;9.18;;;;;;;-144.99;100.00;57660.31;346115;28;2166;-65
2021/12/06 00:06:03;;;;;;;11.30;9.27;;;;;;;-144.99;100.00;57660.31;347434;28;1852;-65
2021/12/06 00:06:17;;;;;;;12.98;9.60;;;;;;;-144.99;100.00;57660.31;346844;28;1763;-65
2021/12/06 00:06:33;;;;;;;13.73;9.98;;;;;;;-144.99;100.00;57660.31;347798;28;1065;-65
2021/12/06 00:06:49;;;;;;;12.80;9.80;;;;;;;-144.99;100.00;57660.31;348023;28;1067;-65
2021/12/06 00:07:06;;;;;;;13.40;9.35;;;;;;;-144.99;100.00;57660.31;347755;28;2018;-65
2021/12/06 00:07:22;;;;;;;14.20;10.00;;;;;;;-144.99;100.00;57660.31;347851;28;1290;-65
2021/12/06 00:07:34;;;;;;;13.52;10.20;;;;;;;-144.99;100.00;57660.31;346911;28;2208;-65
2021/12/06 00:07:47;;;;;;;13.85;9.80;;;;;;;-144.99;100.00;57660.31;347728;28;1074;-65
2021/12/06 00:07:59;;;;;;;14.57;10.00;;;;;;;-144.99;100.00;57660.31;347761;28;1800;-65
2021/12/06 00:08:11;;;;;;;13.60;9.45;;;;;;;-144.99;100.00;57660.31;347803;28;1344;-65
2021/12/06 00:08:23;;;;;;;13.05;9.23;;;;;;;-144.99;100.00;57660.31;347925;28;1031;-65
2021/12/06 00:08:36;;;;;;;13.25;9.60;;;;;;;-144.99;100.00;57660.31;347913;28;1239;-65
2021/12/06 00:08:48;;;;;;;13.15;10.05;;;;;;;-144.99;100.00;57660.31;347711;28;1004;-65
2021/12/06 00:09:05;;;;;;;12.27;9.95;;;;;;;-144.99;100.00;57660.31;347323;28;1824;-65
2021/12/06 00:09:20;;;;;;;12.45;9.88;;;;;;;-144.99;100.00;57660.31;346589;28;1038;-65
2021/12/06 00:09:32;;;;;;;14.63;9.98;;;;;;;-144.99;100.00;57660.31;347659;28;1942;-65
2021/12/06 00:09:44;;;;;;;13.90;9.77;;;;;;;-144.99;100.00;57660.31;346378;28;1231;-65
2021/12/06 00:09:56;;;;;;;12.65;10.40;;;;;;;-144.99;100.00;57660.31;346840;28;2087;-65
2021/12/06 00:10:11;;;;;;;14.23;11.05;;;;;;;-144.99;100.00;57660.31;346448;28;2105;-65
2021/12/06 00:10:23;;;;;;;15.30;11.00;;;;;;;-144.99;100.00;57660.31;346271;28;946;-65
2021/12/06 00:10:35;;;;;;;14.57;10.63;;;;;;;-144.99;100.00;57660.31;346344;28;1243;-65
2021/12/06 00:10:50;;;;;;;13.43;10.15;;;;;;;-144.99;100.00;57660.31;346339;28;1281;-65
2021/12/06 00:11:07;;;;;;;13.77;10.25;;;;;;;-144.99;100.00;57660.31;346385;28;1279;-65
2021/12/06 00:11:20;;;;;;;14.20;10.60;;;;;;;-144.99;100.00;57660.31;346623;28;1192;-65
2021/12/06 00:11:34;;;;;;;14.98;10.88;;;;;;;-144.99;100.00;57660.31;346715;28;1062;-65
2021/12/06 00:11:50;;;;;;;14.57;10.93;;;;;;;-144.99;100.00;57660.31;346357;28;1031;-65
2021/12/06 00:12:02;;;;;;;14.32;10.73;;;;;;;-144.99;100.00;57660.31;346920;28;1601;-65
2021/12/06 00:12:15;;;;;;;14.57;10.70;;;;;;;-144.99;100.00;57660.31;347687;28;1045;-65
2021/12/06 00:12:27;;;;;;;14.35;10.52;;;;;;;-144.99;100.00;57660.31;347709;28;1187;-65
2021/12/06 00:12:39;;;;;;;13.07;10.40;;;;;;;-144.99;100.00;57660.31;347208;28;2335;-65
2021/12/06 00:12:51;;;;;;;13.75;10.57;;;;;;;-144.99;100.00;57660.31;347204;28;1656;-65
2021/12/06 00:13:03;;;;;;;14.13;10.70;;;;;;;-144.99;100.00;57660.31;347114;28;1602;-65
2021/12/06 00:13:15;;;;;;;14.60;11.23;;;;;;;-144.99;100.00;57660.31;347636;28;1189;-65
2021/12/06 00:13:28;;;;;;;14.68;11.50;;;;;;;-144.99;100.00;57660.31;347540;28;1323;-65
2021/12/06 00:13:43;;;;;;;14.40;10.70;;;;;;;-144.99;100.00;57660.31;347352;28;1977;-65
2021/12/06 00:13:55;;;;;;;16.00;10.52;;;;;;;-144.99;100.00;57660.31;346931;28;1502;-65
2021/12/06 00:14:07;;;;;;;15.70;10.27;;;;;;;-144.99;100.00;57660.31;346432;28;1009;-65
2021/12/06 00:14:27;;;;;;;14.50;10.85;;;;;;;-144.99;100.00;57660.31;347250;28;2086;-65
2021/12/06 00:14:40;;;;;;;15.25;11.48;;;;;;;-144.99;100.00;57660.31;347180;28;1923;-65
2021/12/06 00:14:53;;;;;;;15.50;11.25;;;;;;;-144.99;100.00;57660.31;348066;28;1018;-65
2021/12/06 00:15:06;;;;;;;14.93;11.48;;;;;;;-144.99;100.00;57660.31;347608;28;1922;-65
2021/12/06 00:15:18;;;;;;;16.00;11.98;;;;;;;-144.99;100.00;57660.31;347957;28;1072;-65
2021/12/06 00:15:33;;;;;;;15.38;11.60;;;;;;;-144.99;100.00;57660.31;347906;28;1018;-65
2021/12/06 00:15:48;;;;;;;14.65;10.93;;;;;;;-144.99;100.00;57660.31;347423;28;1491;-65
2021/12/06 00:16:01;;;;;;;14.63;10.70;;;;;;;-144.99;100.00;57660.31;347301;28;1560;-65
2021/12/06 00:16:18;;;;;;;14.50;10.43;;;;;;;-144.99;100.00;57660.31;346534;28;913;-65
2021/12/06 00:16:31;;;;;;;14.77;10.02;;;;;;;-144.99;100.00;57660.31;347635;28;1684;-65
2021/12/06 00:16:43;;;;;;;14.27;10.15;;;;;;;-144.99;100.00;57660.31;346663;28;1321;-65
2021/12/06 00:17:01;;;;;;;14.27;10.68;;;;;;;-144.99;100.00;57660.31;346650;28;1053;-65
2021/12/06 00:17:15;;;;;;;14.63;11.50;;;;;;;-144.99;100.00;57660.31;345825;28;2064;-65
2021/12/06 00:17:27;;;;;;;14.30;11.30;;;;;;;-144.99;100.00;57660.31;346503;28;1203;-65
2021/12/06 00:17:40;;;;;;;14.85;11.15;;;;;;;-144.99;100.00;57660.31;346437;28;1100;-65
2021/12/06 00:17:52;;;;;;;14.63;11.30;;;;;;;-144.99;100.00;57660.31;346413;28;1041;-65
2021/12/06 00:18:04;;;;;;;14.52;10.43;;;;;;;-144.99;100.00;57660.31;347415;28;2034;-65
2021/12/06 00:18:17;;;;;;;14.35;10.20;;;;;;;-144.99;100.00;57660.31;346618;28;2377;-65
2021/12/06 00:18:29;;;;;;;14.10;10.30;;;;;;;-144.99;100.00;57660.31;346367;28;1039;-65
2021/12/06 00:18:41;;;;;;;12.88;10.20;;;;;;;-144.99;100.00;57660.31;346725;28;1340;-65
2021/12/06 00:18:53;;;;;;;14.02;10.38;;;;;;;-144.99;100.00;57660.31;346323;28;1110;-65
2021/12/06 00:19:06;;;;;;;14.98;10.65;;;;;;;-144.99;100.00;57660.31;347651;28;1847;-65
2021/12/06 00:19:18;;;;;;;15.25;10.68;;;;;;;-144.99;100.00;57660.31;347681;28;1070;-65
2021/12/06 00:19:31;;;;;;;14.65;10.70;;;;;;;-144.99;100.00;57660.31;347197;28;1872;-65
2021/12/06 00:19:44;;;;;;;15.95;11.30;;;;;;;-144.99;100.00;57660.31;347989;28;1188;-65
2021/12/06 00:19:56;;;;;;;16.85;11.93;;;;;;;-144.99;100.00;57660.31;347527;28;1889;-65
2021/12/06 00:20:12;;;;;;;17.15;11.68;;;;;;;-144.99;100.00;57660.31;348024;28;1080;-65
2021/12/06 00:20:24;;;;;;;15.68;11.15;;;;;;;-144.99;100.00;57660.31;347736;28;1318;-65
2021/12/06 00:20:36;;;;;;;13.93;11.20;;;;;;;-144.99;100.00;57660.31;347459;28;2135;-65
2021/12/06 00:20:48;;;;;;;13.93;11.32;;;;;;;-144.99;100.00;57660.31;346125;28;2090;-65
2021/12/06 00:21:01;;;;;;;14.40;11.32;;;;;;;-144.99;100.00;57660.31;347278;28;2016;-65
2021/12/06 00:21:13;;;;;;;14.74;11.44;;;;;;;-144.99;100.00;57660.31;347569;28;1238;-65
2021/12/06 00:21:26;;;;;;;16.42;11.90;;;;;;;-144.99;100.00;57660.31;347857;28;1041;-65
2021/12/06 00:21:38;;;;;;;15.80;11.70;;;;;;;-144.99;100.00;57660.31;347790;28;1102;-65
2021/12/06 00:21:51;;;;;;;15.02;11.15;;;;;;;-144.99;100.00;57660.31;347907;28;1093;-65
2021/12/06 00:22:10;;;;;;;15.02;11.40;;;;;;;-144.99;100.00;57660.31;347464;28;1596;-65
2021/12/06 00:22:23;;;;;;;16.45;11.90;;;;;;;-144.99;100.00;57660.31;347630;28;1046;-65
2021/12/06 00:22:35;;;;;;;18.05;11.90;;;;;;;-144.99;100.00;57660.31;347015;28;2184;-65
2021/12/06 00:22:47;;;;;;;18.15;11.57;;;;;;;-144.99;100.00;57660.31;346998;28;2277;-65
2021/12/06 00:22:59;;;;;;;17.20;11.50;;;;;;;-144.99;100.00;57660.31;347675;28;1836;-65
2021/12/06 00:23:11;;;;;;;16.52;11.65;;;;;;;-144.99;100.00;57660.31;347815;28;1108;-65
2021/12/06 00:23:23;;;;;;;17.85;12.15;;;;;;;-144.99;100.00;57660.31;347783;28;1290;-65
2021/12/06 00:23:36;;;;;;;17.85;12.30;;;;;;;-144.99;100.00;57660.31;347866;28;1302;-65
2021/12/06 00:23:49;;;;;;;16.45;12.00;;;;;;;-144.99;100.00;57660.31;347937;28;1294;-65
2021/12/06 00:24:02;;;;;;;15.43;11.75;;;;;;;-144.99;100.00;57660.31;347678;28;1576;-65
2021/12/06 00:24:14;;;;;;;15.80;11.88;;;;;;;-144.99;100.00;57660.31;347703;28;1167;-65
2021/12/06 00:24:26;;;;;;;16.77;12.20;;;;;;;-144.99;100.00;57660.31;347684;28;1101;-65
2021/12/06 00:24:38;;;;;;;16.35;12.32;;;;;;;-144.99;100.00;57660.31;346886;28;1909;-65
2021/12/06 00:24:55;;;;;;;15.70;11.77;;;;;;;-144.99;100.00;57660.31;347779;28;1882;-65
2021/12/06 00:25:09;;;;;;;15.77;12.43;;;;;;;-144.99;100.00;57660.31;346562;28;1050;-65
2021/12/06 00:25:21;;;;;;;16.25;12.40;;;;;;;-144.99;100.00;57660.31;346530;28;1466;-65
2021/12/06 00:25:35;;;;;;;16.45;11.88;;;;;;;-144.99;100.00;57660.31;346447;28;1242;-65
2021/12/06 00:25:47;;;;;;;15.35;11.73;;;;;;;-144.99;100.00;57660.31;346384;28;1184;-65
2021/12/06 00:25:59;;;;;;;15.55;11.82;;;;;;;-144.99;100.00;57660.31;346695;28;1790;-65
2021/12/06 00:26:12;;;;;;;15.48;11.65;;;;;;;-144.99;100.00;57660.31;346975;28;2078;-65
2021/12/06 00:26:24;;;;;;;15.30;11.68;;;;;;;-144.99;100.00;57660.31;346594;28;1038;-65
2021/12/06 00:26:36;;;;;;;15.85;11.73;;;;;;;-144.99;100.00;57660.31;346573;28;1038;-65
2021/12/06 00:26:48;;;;;;;14.02;10.63;;;;;;;-144.99;100.00;57660.31;346587;28;1300;-65
2021/12/06 00:27:00;;;;;;;12.85;10.27;;;;;;;-144.99;100.00;57660.31;346929;28;1892;-65
2021/12/06 00:27:12;;;;;;;14.15;11.05;;;;;;;-144.99;100.00;57660.31;347804;28;1068;-65
2021/12/06 00:27:25;;;;;;;15.48;12.10;;;;;;;-144.99;100.00;57660.31;347907;28;1340;-65
2021/12/06 00:27:39;;;;;;;15.60;11.88;;;;;;;-144.99;100.00;57660.31;347661;28;1271;-65
2021/12/06 00:27:51;;;;;;;14.93;10.88;;;;;;;-144.99;100.00;57660.31;347914;28;1189;-65
2021/12/06 00:28:04;;;;;;;13.27;10.05;;;;;;;-144.99;100.00;57660.31;347803;28;1587;-65
2021/12/06 00:28:16;;;;;;;12.25;9.80;;;;;;;-144.99;100.00;57660.31;346409;28;2098;-65
2021/12/06 00:28:28;;;;;;;12.55;9.80;;;;;;;-144.99;100.00;57660.31;348047;28;1315;-65
2021/12/06 00:28:43;;;;;;;12.80;10.20;;;;;;;-144.99;100.00;57660.31;347996;28;1215;-65
2021/12/06 00:28:58;;;;;;;11.88;9.80;;;;;;;-144.99;100.00;57660.31;348049;28;1065;-65
2021/12/06 00:29:10;;;;;;;12.50;9.90;;;;;;;-144.99;100.00;57660.31;346547;28;1058;-65
2021/12/06 00:29:22;;;;;;;12.80;10.20;;;;;;;-144.99;100.00;57660.31;346621;28;1324;-65
2021/12/06 00:29:34;;;;;;;12.20;10.07;;;;;;;-144.99;100.00;57660.31;346437;28;1320;-65
2021/12/06 00:29:47;;;;;;;12.02;9.57;;;;;;;-144.99;100.00;57660.31;346168;28;1537;-65
2021/12/06 00:30:00;;;;;;;13.80;10.40;;;;;;;-144.99;100.00;57660.31;347020;28;1516;-65
2021/12/06 00:30:15;;;;;;;14.82;10.82;;;;;;;-144.99;100.00;57660.31;346513;28;1285;-65
2021/12/06 00:30:27;;;;;;;13.40;10.27;;;;;;;-144.99;100.00;57660.31;346049;28;2078;-65
2021/12/06 00:30:39;;;;;;;11.82;9.65;;;;;;;-144.99;100.00;57660.31;346574;28;1056;-65
2021/12/06 00:30:52;;;;;;;12.10;10.10;;;;;;;-144.99;100.00;57660.31;346369;28;1224;-65
2021/12/06 00:31:05;;;;;;;15.07;10.75;;;;;;;-144.99;100.00;57660.31;347459;28;1980;-65
2021/12/06 00:31:17;;;;;;;15.73;11.02;;;;;;;-144.99;100.00;57660.31;346307;28;2042;-65
2021/12/06 00:31:33;;;;;;;14.48;10.90;;;;;;;-144.99;100.00;57660.31;347787;28;1289;-65
2021/12/06 00:31:46;;;;;;;14.68;11.27;;;;;;;-144.99;100.00;57660.31;347645;28;1040;-66
2021/12/06 00:31:58;;;;;;;13.77;10.90;;;;;;;-144.99;100.00;57660.31;347107;28;2228;-65
2021/12/06 00:32:10;;;;;;;14.20;10.63;;;;;;;-144.99;100.00;57660.31;347891;28;1271;-65
2021/12/06 00:32:23;;;;;;;14.88;10.05;;;;;;;-144.99;100.00;57660.31;347954;28;1228;-65
2021/12/06 00:32:35;;;;;;;15.90;10.30;;;;;;;-144.99;100.00;57660.31;347922;28;1074;-65
2021/12/06 00:32:47;;;;;;;15.25;10.23;;;;;;;-144.99;100.00;57660.31;347474;28;2073;-65
2021/12/06 00:33:00;;;;;;;14.82;10.45;;;;;;;-144.99;100.00;57660.31;347159;28;1982;-65
2021/12/06 00:33:12;;;;;;;13.85;10.55;;;;;;;-144.99;100.00;57660.31;346921;28;2152;-65
2021/12/06 00:33:25;;;;;;;14.35;10.95;;;;;;;-144.99;100.00;57660.31;346568;28;2296;-65
2021/12/06 00:33:38;;;;;;;15.77;11.18;;;;;;;-144.99;100.00;57660.31;347591;28;945;-65
2021/12/06 00:33:57;;;;;;;15.30;11.15;;;;;;;-144.99;100.00;57660.31;347849;28;1062;-65
2021/12/06 00:34:14;;;;;;;14.35;10.93;;;;;;;-144.99;100.00;57660.31;347918;28;1182;-65
2021/12/06 00:34:31;;;;;;;15.45;10.88;;;;;;;-144.99;100.00;57660.31;347635;28;1050;-65
2021/12/06 00:34:43;;;;;;;15.77;11.30;;;;;;;-144.99;100.00;57660.31;347010;28;2157;-65
2021/12/06 00:34:55;;;;;;;15.38;10.80;;;;;;;-144.99;100.00;57660.31;348183;28;1041;-63
2021/12/06 00:35:16;;;;;;;14.48;10.23;;;;;;;-144.99;100.00;57660.31;347079;28;1146;-66
2021/12/06 00:35:29;;;;;;;15.10;10.65;;;;;;;-144.99;100.00;57660.31;346079;28;2187;-65
2021/12/06 00:35:42;;;;;;;14.95;10.95;;;;;;;-144.99;100.00;57660.31;347149;28;1174;-66
2021/12/06 00:35:56;;;;;;;14.52;10.82;;;;;;;-144.99;100.00;57660.31;348079;28;1185;-65
2021/12/06 00:36:15;;;;;;;14.23;10.75;;;;;;;-144.99;100.00;57660.31;346945;28;1311;-65
2021/12/06 00:36:30;;;;;;;13.68;10.60;;;;;;;-144.99;100.00;57660.31;348078;28;1045;-65
2021/12/06 00:36:52;;;;;;;16.27;11.20;;;;;;;-144.99;100.00;57660.31;347941;28;1074;-65
2021/12/06 00:37:30;;;;;;;17.30;11.80;;;;;;;-144.99;100.00;57660.31;347672;28;1481;-65
2021/12/06 00:37:53;;;;;;;17.40;12.57;;;;;;;-144.99;100.00;57660.31;347909;28;1018;-63
2021/12/06 00:38:05;;;;;;;17.92;12.73;;;;;;;-144.99;100.00;57660.31;346385;28;1984;-66
2021/12/06 00:38:17;;;;;;;16.42;11.85;;;;;;;-144.99;100.00;57660.31;346599;28;1233;-65
2021/12/06 00:38:31;;;;;;;15.07;11.00;;;;;;;-144.99;100.00;57660.31;346383;28;1023;-65
2021/12/06 00:38:45;;;;;;;13.52;10.52;;;;;;;-144.99;100.00;57660.31;346464;28;1046;-66
2021/12/06 00:38:59;;;;;;;13.63;10.70;;;;;;;-144.99;100.00;57660.31;346447;28;1890;-64
2021/12/06 00:39:12;;;;;;;14.77;11.20;;;;;;;-144.99;100.00;57660.31;346091;28;1845;-66
2021/12/06 00:39:24;;;;;;;16.70;11.00;;;;;;;-144.99;100.00;57660.31;346951;28;1984;-65
2021/12/06 00:39:36;;;;;;;17.65;11.20;;;;;;;-144.99;100.00;57660.31;347321;28;2160;-66
2021/12/06 00:39:54;;;;;;;16.67;10.75;;;;;;;-144.99;100.00;57660.31;346445;28;1104;-65
2021/12/06 00:40:08;;;;;;;17.13;10.95;;;;;;;-144.99;100.00;57660.31;346581;28;1316;-64
2021/12/06 00:40:20;;;;;;;17.95;11.93;;;;;;;-144.99;100.00;57660.31;346622;28;1081;-64
2021/12/06 00:40:50;;;;;;;17.35;12.68;;;;;;;-144.99;100.00;57660.31;347532;28;1832;-65
2021/12/06 00:41:04;;;;;;;17.17;12.43;;;;;;;-144.99;100.00;57660.31;347083;28;1960;-65
2021/12/06 00:41:16;;;;;;;18.17;12.82;;;;;;;-144.99;100.00;57660.31;347689;28;1014;-65
2021/12/06 00:41:28;;;;;;;18.23;12.90;;;;;;;-144.99;100.00;57660.31;347931;28;1065;-65
2021/12/06 00:41:40;;;;;;;18.52;12.60;;;;;;;-144.99;100.00;57660.31;347667;28;1146;-65
2021/12/06 00:41:52;;;;;;;18.90;13.00;;;;;;;-144.99;100.00;57660.31;347730;28;1048;-65
2021/12/06 00:42:04;;;;;;;18.33;13.23;;;;;;;-144.99;100.00;57660.31;347899;28;1547;-64
2021/12/06 00:42:18;;;;;;;18.38;13.32;;;;;;;-144.99;100.00;57660.31;347854;28;1055;-65
2021/12/06 00:42:33;;;;;;;17.65;13.20;;;;;;;-144.99;100.00;57660.31;347947;28;1188;-64
2021/12/06 00:42:45;;;;;;;17.20;13.13;;;;;;;-144.99;100.00;57660.31;347900;28;1018;-65
2021/12/06 00:42:58;;;;;;;18.23;12.40;;;;;;;-144.99;100.00;57660.31;346204;28;2374;-64
2021/12/06 00:43:10;;;;;;;16.73;10.95;;;;;;;-144.99;100.00;57660.31;346990;28;2172;-65
2021/12/06 00:43:22;;;;;;;14.90;10.27;;;;;;;-144.99;100.00;57660.31;347689;28;1038;-64
2021/12/06 00:43:34;;;;;;;13.45;10.60;;;;;;;-144.99;100.00;57660.31;347851;28;1318;-65
2021/12/06 00:43:46;;;;;;;13.95;11.02;;;;;;;-144.99;100.00;57660.31;347720;28;1041;-64
2021/12/06 00:44:00;;;;;;;13.95;10.75;;;;;;;-144.99;100.00;57660.31;346820;28;4521;-65
2021/12/06 00:44:12;;;;;;;13.32;10.40;;;;;;;-144.99;100.00;57660.31;347904;28;1065;-65
2021/12/06 00:44:24;;;;;;;12.93;10.35;;;;;;;-144.99;100.00;57660.31;347093;28;1820;-65
2021/12/06 00:44:37;;;;;;;13.18;10.20;;;;;;;-144.99;100.00;57660.31;346775;28;2086;-65
2021/12/06 00:44:49;;;;;;;13.80;10.25;;;;;;;-144.99;100.00;57660.31;347705;28;1089;-65
2021/12/06 00:45:07;;;;;;;13.93;10.18;;;;;;;-144.99;100.00;57660.31;346861;28;1850;-65
2021/12/06 00:45:19;;;;;;;13.00;9.70;;;;;;;-144.99;100.00;57660.31;346519;28;1022;-66
2021/12/06 00:45:32;;;;;;;12.63;9.57;;;;;;;-144.99;100.00;57660.31;346560;28;1255;-64
2021/12/06 00:45:44;;;;;;;13.40;10.13;;;;;;;-144.99;100.00;57660.31;346150;28;1010;-65
2021/12/06 00:45:56;;;;;;;13.70;10.80;;;;;;;-144.99;100.00;57660.31;346500;28;1770;-66
2021/12/06 00:46:08;;;;;;;13.13;10.65;;;;;;;-144.99;100.00;57660.31;347902;28;1066;-66
2021/12/06 00:46:20;;;;;;;13.02;10.38;;;;;;;-144.99;100.00;57660.31;348115;28;1976;-64
2021/12/06 00:46:33;;;;;;;13.40;10.35;;;;;;;-144.99;100.00;57660.31;347149;28;2146;-64
2021/12/06 00:46:45;;;;;;;13.07;10.23;;;;;;;-144.99;100.00;57660.31;347448;28;1897;-65
2021/12/06 00:46:58;;;;;;;13.32;10.02;;;;;;;-144.99;100.00;57660.31;347544;28;1991;-66
2021/12/06 00:47:10;;;;;;;13.43;9.70;;;;;;;-144.99;100.00;57660.31;347907;28;1242;-65
2021/12/06 00:47:22;;;;;;;12.15;9.07;;;;;;;-144.99;100.00;57660.31;347830;28;1267;-64
2021/12/06 00:47:34;;;;;;;11.18;8.57;;;;;;;-144.99;100.00;57660.31;347933;28;1102;-64
2021/12/06 00:47:47;;;;;;;12.45;9.45;;;;;;;-144.99;100.00;57660.31;347912;28;1066;-65
2021/12/06 00:47:59;;;;;;;13.40;10.23;;;;;;;-144.99;100.00;57660.31;347226;28;1490;-64
2021/12/06 00:48:11;;;;;;;13.60;10.45;;;;;;;-144.99;100.00;57660.31;346537;28;1086;-65
2021/12/06 00:48:23;;;;;;;14.52;10.48;;;;;;;-144.99;100.00;57660.31;346278;28;1075;-66
2021/12/06 00:48:35;;;;;;;13.48;9.65;;;;;;;-144.99;100.00;57660.31;347262;28;1023;-64
2021/12/06 00:48:48;;;;;;;13.68;9.48;;;;;;;-144.99;100.00;57660.31;347754;28;1067;-65
2021/12/06 00:49:00;;;;;;;14.25;9.73;;;;;;;-144.99;100.00;57660.31;347276;28;1778;-65
2021/12/06 00:49:12;;;;;;;15.00;9.60;;;;;;;-144.99;100.00;57660.31;346528;28;1145;-65
2021/12/06 00:49:24;;;;;;;14.68;9.48;;;;;;;-144.99;100.00;57660.31;346407;28;2167;-66
2021/12/06 00:49:36;;;;;;;13.57;9.60;;;;;;;-144.99;100.00;57660.31;347923;28;1217;-65
2021/12/06 00:49:50;;;;;;;14.27;10.23;;;;;;;-144.99;100.00;57660.31;348002;28;1316;-64
2021/12/06 00:50:05;;;;;;;15.38;10.55;;;;;;;-144.99;100.00;57660.31;347558;28;1553;-66
2021/12/06 00:50:18;;;;;;;14.85;10.05;;;;;;;-144.99;100.00;57660.31;346947;28;2571;-64
2021/12/06 00:50:34;;;;;;;13.80;9.88;;;;;;;-144.99;100.00;57660.31;348040;28;1096;-65
2021/12/06 00:50:46;;;;;;;13.32;9.75;;;;;;;-144.99;100.00;57660.31;346358;28;994;-65
2021/12/06 00:50:58;;;;;;;12.25;9.32;;;;;;;-144.99;100.00;57660.31;346662;28;1794;-65
2021/12/06 00:51:12;;;;;;;12.30;9.02;;;;;;;-144.99;100.00;57660.31;347988;28;1106;-65
2021/12/06 00:51:24;;;;;;;12.98;9.43;;;;;;;-144.99;100.00;57660.31;347898;28;1701;-66
2021/12/06 00:51:37;;;;;;;12.20;9.25;;;;;;;-144.99;100.00;57660.31;347817;28;1192;-65
2021/12/06 00:51:49;;;;;;;11.40;8.82;;;;;;;-144.99;100.00;57660.31;347895;28;1017;-64
2021/12/06 00:52:01;;;;;;;11.23;9.23;;;;;;;-144.99;100.00;57660.31;347530;28;1551;-66
2021/12/06 00:52:15;;;;;;;11.85;9.35;;;;;;;-144.99;100.00;57660.31;347614;28;1235;-67
2021/12/06 00:52:27;;;;;;;12.85;9.48;;;;;;;-144.99;100.00;57660.31;347799;28;1321;-65
2021/12/06 00:52:39;;;;;;;13.55;10.05;;;;;;;-144.99;100.00;57660.31;347970;28;1081;-65
2021/12/06 00:52:51;;;;;;;13.68;10.30;;;;;;;-144.99;100.00;57660.31;347917;28;1069;-65
2021/12/06 00:53:05;;;;;;;13.07;10.10;;;;;;;-144.99;100.00;57660.31;346138;28;2398;-67
2021/12/06 00:53:17;;;;;;;13.10;10.23;;;;;;;-144.99;100.00;57660.31;347628;28;2407;-64
2021/12/06 00:53:29;;;;;;;14.15;10.80;;;;;;;-144.99;100.00;57660.31;346162;28;1339;-64
2021/12/06 00:53:42;;;;;;;14.40;10.55;;;;;;;-144.99;100.00;57660.31;346459;28;1061;-65
2021/12/06 00:53:54;;;;;;;14.13;10.20;;;;;;;-144.99;100.00;57660.31;346421;28;2033;-64
2021/12/06 00:54:09;;;;;;;13.35;9.85;;;;;;;-144.99;100.00;57660.31;347622;28;1063;-65
2021/12/06 00:54:21;;;;;;;12.10;9.55;;;;;;;-144.99;100.00;57660.31;347258;28;2091;-66
2021/12/06 00:54:35;;;;;;;11.00;9.00;;;;;;;-144.99;100.00;57660.31;347518;28;1805;-64
2021/12/06 00:54:48;;;;;;;11.45;9.18;;;;;;;-144.99;100.00;57660.31;347142;28;2068;-64
2021/12/06 00:55:00;;;;;;;13.07;10.05;;;;;;;-144.99;100.00;57660.31;347307;28;1886;-65
2021/12/06 00:55:13;;;;;;;13.77;10.48;;;;;;;-144.99;100.00;57660.31;347200;28;2161;-65
2021/12/06 00:55:26;;;;;;;14.05;10.27;;;;;;;-144.99;100.00;57660.31;347685;28;1263;-66
2021/12/06 00:55:38;;;;;;;14.52;10.45;;;;;;;-144.99;100.00;57660.31;347322;28;1290;-66
2021/12/06 00:55:50;;;;;;;15.13;10.75;;;;;;;-144.99;100.00;57660.31;347636;28;1310;-64
2021/12/06 00:56:03;;;;;;;14.00;10.38;;;;;;;-144.99;100.00;57660.31;347400;28;1562;-65
2021/12/06 00:56:15;;;;;;;13.30;9.80;;;;;;;-144.99;100.00;57660.31;347464;28;1078;-65
2021/12/06 00:56:27;;;;;;;12.68;9.32;;;;;;;-144.99;100.00;57660.31;347520;28;1849;-65
2021/12/06 00:56:39;;;;;;;13.52;9.63;;;;;;;-144.99;100.00;57660.31;347697;28;1847;-67
2021/12/06 00:56:52;;;;;;;13.75;9.85;;;;;;;-144.99;100.00;57660.31;346728;28;2063;-65
2021/12/06 00:57:07;;;;;;;13.48;9.82;;;;;;;-144.99;100.00;57660.31;347338;28;1913;-66
2021/12/06 00:57:19;;;;;;;12.63;9.60;;;;;;;-144.99;100.00;57660.31;347905;28;1089;-65
2021/12/06 00:57:31;;;;;;;11.48;9.30;;;;;;;-144.99;100.00;57660.31;347179;28;1894;-66
2021/12/06 00:57:44;;;;;;;12.13;9.32;;;;;;;-144.99;100.00;57660.31;347733;28;1173;-65
2021/12/06 00:57:57;;;;;;;11.77;8.90;;;;;;;-144.99;100.00;57660.31;347649;28;1896;-65
2021/12/06 00:58:09;;;;;;;11.07;8.95;;;;;;;-144.99;100.00;57660.31;347943;28;1046;-64
2021/12/06 00:58:21;;;;;;;11.65;9.38;;;;;;;-144.99;100.00;57660.31;347835;28;1070;-64
2021/12/06 00:58:33;;;;;;;12.27;9.32;;;;;;;-144.99;100.00;57660.31;347753;28;1529;-65
2021/12/06 00:58:45;;;;;;;12.73;9.65;;;;;;;-144.99;100.00;57660.31;347959;28;1295;-65
2021/12/06 00:58:57;;;;;;;12.80;9.88;;;;;;;-144.99;100.00;57660.31;347409;28;2336;-65
2021/12/06 00:59:09;;;;;;;11.90;9.32;;;;;;;-144.99;100.00;57660.31;347764;28;1110;-65
2021/12/06 00:59:21;;;;;;;10.45;8.50;;;;;;;-144.99;100.00;57660.31;347035;28;2357;-66
2021/12/06 00:59:35;;;;;;;11.18;8.60;;;;;;;-144.99;100.00;57660.31;347885;28;1101;-64
2021/12/06 00:59:47;;;;;;;11.85;8.98;;;;;;;-144.99;100.00;57660.31;347731;28;1047;-65
2021/12/06 01:00:00;;;;;;;11.90;9.10;;;;;;;-144.99;100.00;57660.31;347280;28;1985;-65
2021/12/06 01:00:25;;;;;;;11.77;9.23;;;;;;;-144.99;100.00;57660.31;346624;28;1070;-65
2021/12/06 01:00:41;;;;;;;15.63;10.35;;;;;;;-144.99;100.00;57660.31;346544;28;1059;-65
2021/12/06 01:00:55;;;;;;;17.23;11.70;;;;;;;-144.99;100.00;57660.31;345598;28;2175;-67
2021/12/06 01:01:08;;;;;;;17.02;11.85;;;;;;;-144.99;100.00;57660.31;347410;28;1948;-65
2021/12/06 01:01:20;;;;;;;13.30;10.55;;;;;;;-144.99;100.00;57660.31;347179;28;2302;-65
2021/12/06 01:01:33;;;;;;;13.10;10.30;;;;;;;-144.99;100.00;57660.31;347270;28;1588;-65
2021/12/06 01:01:46;;;;;;;13.80;11.13;;;;;;;-144.99;100.00;57660.31;346410;28;1066;-65
2021/12/06 01:02:00;;;;;;;15.27;11.80;;;;;;;-144.99;100.00;57660.31;346546;28;1901;-66
2021/12/06 01:02:14;;;;;;;15.23;11.90;;;;;;;-144.99;100.00;57660.31;346873;28;2017;-65
2021/12/06 01:02:26;;;;;;;14.75;11.55;;;;;;;-144.99;100.00;57660.31;346391;28;1005;-66
2021/12/06 01:02:39;;;;;;;14.90;11.30;;;;;;;-144.99;100.00;57660.31;346466;28;972;-65